Time;durP1;ratioP1;P1;durP2;ratioP2;P2;SDS_P1;SDS_P2;PMS_P1;PMS_P2;Temp;Humidity;BMP_temperature;BMP_pressure;BME280_temperature;BME280_humidity;BME280_pressure;Samples;Min_cycle;Max_cycle;Signal;HPM_P1;HPM_P2
2021/03/15 00:03:39;;;;;;;13.63;5.22;;;4.50;99.90;;;;;;10327742;28;20129;-72
2021/03/15 00:08:42;;;;;;;12.23;5.20;;;4.40;99.90;;;;;;10327339;28;20136;-71
2021/03/15 00:13:43;;;;;;;10.05;4.80;;;4.30;99.90;;;;;;10326883;28;20121;-71
2021/03/15 00:18:45;;;;;;;10.15;4.40;;;4.30;99.90;;;;;;10327554;28;20054;-71
2021/03/15 00:23:46;;;;;;;9.10;4.00;;;4.30;99.90;;;;;;10326225;28;20520;-71
2021/03/15 00:28:48;;;;;;;9.88;4.80;;;4.20;99.90;;;;;;10326448;28;20124;-71
2021/03/15 00:33:49;;;;;;;10.40;4.50;;;4.10;99.90;;;;;;10326086;28;20114;-71
2021/03/15 00:38:52;;;;;;;10.40;4.18;;;4.00;99.90;;;;;;10326759;28;20058;-71
2021/03/15 00:43:54;;;;;;;9.95;4.35;;;4.10;99.90;;;;;;10325516;28;20054;-72
2021/03/15 00:48:55;;;;;;;10.02;4.35;;;4.20;99.90;;;;;;10326528;28;20430;-71
2021/03/15 00:53:57;;;;;;;13.30;4.65;;;4.20;99.90;;;;;;10325944;28;20050;-71
2021/03/15 00:58:58;;;;;;;11.48;4.43;;;4.30;99.90;;;;;;10323963;28;20479;-72
2021/03/15 01:04:13;;;;;;;12.38;5.15;;;4.30;99.90;;;;;;10325844;28;20078;-71
2021/03/15 01:09:15;;;;;;;13.45;5.28;;;4.30;99.90;;;;;;10324884;28;20058;-71
2021/03/15 01:14:17;;;;;;;11.95;5.13;;;4.30;99.90;;;;;;10324864;28;20125;-71
2021/03/15 01:19:18;;;;;;;11.02;5.15;;;4.30;99.90;;;;;;10324896;28;20483;-71
2021/03/15 01:24:19;;;;;;;14.80;5.55;;;4.30;99.90;;;;;;10325188;28;20486;-71
2021/03/15 01:29:21;;;;;;;19.85;10.50;;;4.40;99.90;;;;;;10323986;28;20058;-71
2021/03/15 01:34:22;;;;;;;32.13;17.52;;;4.40;99.90;;;;;;10323645;28;20103;-71
2021/03/15 01:39:37;;;;;;;18.00;9.30;;;4.40;99.90;;;;;;10324359;28;20050;-71
2021/03/15 01:44:38;;;;;;;23.90;12.20;;;4.40;99.90;;;;;;10323128;28;20450;-71
2021/03/15 01:49:40;;;;;;;32.33;16.90;;;4.40;99.90;;;;;;10313161;28;20152;-71
2021/03/15 01:54:41;;;;;;;34.92;19.05;;;4.50;99.90;;;;;;10322603;28;20070;-71
2021/03/15 01:59:43;;;;;;;12.60;7.15;;;4.50;99.90;;;;;;10323112;28;20138;-71
2021/03/15 02:04:44;;;;;;;20.75;11.57;;;4.50;99.90;;;;;;10322790;28;20050;-71
2021/03/15 02:10:01;;;;;;;23.30;11.77;;;4.60;99.90;;;;;;10322925;28;20526;-71
2021/03/15 02:15:12;;;;;;;20.88;10.35;;;4.70;99.90;;;;;;10322431;28;20300;-71
2021/03/15 02:20:45;;;;;;;18.77;10.23;;;4.80;99.90;;;;;;10321858;28;20057;-71
2021/03/15 02:25:58;;;;;;;13.00;6.30;;;4.80;99.90;;;;;;10323025;28;20126;-71
2021/03/15 02:31:18;;;;;;;13.68;6.15;;;4.90;99.90;;;;;;10322221;28;20154;-71
2021/03/15 02:36:22;;;;;;;13.02;6.05;;;4.90;99.90;;;;;;10309278;28;20047;-71
2021/03/15 02:41:25;;;;;;;13.20;5.03;;;4.80;99.90;;;;;;10302804;28;20574;-71
2021/03/15 02:46:28;;;;;;;16.40;5.93;;;4.90;99.90;;;;;;10321622;28;20054;-71
2021/03/15 02:51:33;;;;;;;12.65;5.40;;;4.90;99.90;;;;;;10322449;28;20586;-71
2021/03/15 02:56:40;;;;;;;16.17;5.15;;;4.90;99.90;;;;;;10322091;28;20613;-71
2021/03/15 03:01:44;;;;;;;12.77;4.90;;;4.70;99.90;;;;;;10323823;28;20153;-71
2021/03/15 03:06:49;;;;;;;16.80;5.15;;;4.80;99.90;;;;;;10329830;28;21561;-71
2021/03/15 03:11:52;;;;;;;12.40;4.63;;;4.90;99.90;;;;;;10328652;28;20108;-71
2021/03/15 03:16:56;;;;;;;16.00;4.80;;;5.00;99.90;;;;;;10335042;28;20081;-71
2021/03/15 03:22:00;;;;;;;15.77;5.00;;;5.00;99.90;;;;;;10336588;28;20120;-71
2021/03/15 03:27:03;;;;;;;16.75;5.53;;;5.00;99.90;;;;;;10336895;28;20829;-71
2021/03/15 03:32:05;;;;;;;13.05;4.90;;;5.00;99.90;;;;;;10336549;28;20077;-71
2021/03/15 03:37:08;;;;;;;13.65;4.90;;;4.90;99.90;;;;;;10335763;28;20128;-71
2021/03/15 03:42:09;;;;;;;13.88;5.10;;;4.80;99.90;;;;;;10337174;28;20125;-71
2021/03/15 03:47:11;;;;;;;13.73;5.50;;;4.90;99.90;;;;;;10316704;28;20077;-71
2021/03/15 03:52:14;;;;;;;10.27;4.50;;;4.90;99.90;;;;;;10336357;28;20414;-71
2021/03/15 03:57:21;;;;;;;13.05;5.63;;;4.80;99.90;;;;;;10336504;28;20125;-71
2021/03/15 04:02:25;;;;;;;13.85;5.38;;;4.80;99.90;;;;;;10332605;28;20074;-71
2021/03/15 04:07:28;;;;;;;14.18;5.50;;;4.90;99.90;;;;;;10306585;28;20132;-71
2021/03/15 04:12:32;;;;;;;15.45;5.47;;;5.00;99.90;;;;;;10292960;28;20478;-71
2021/03/15 04:17:41;;;;;;;16.38;5.50;;;5.10;99.90;;;;;;10327629;28;20125;-72
2021/03/15 04:23:05;;;;;;;16.73;6.80;;;5.10;99.90;;;;;;10327993;28;20325;-71
2021/03/15 04:28:07;;;;;;;17.38;6.10;;;5.10;99.90;;;;;;10326660;28;20142;-72
2021/03/15 04:33:10;;;;;;;14.77;5.30;;;5.10;99.90;;;;;;10327832;28;20558;-71
2021/03/15 04:38:13;;;;;;;12.13;4.82;;;5.10;99.90;;;;;;10327338;28;20050;-71
2021/03/15 04:43:17;;;;;;;12.73;5.38;;;5.00;99.90;;;;;;10327480;28;20129;-72
2021/03/15 04:48:23;;;;;;;13.35;4.90;;;5.10;99.90;;;;;;10325816;28;20050;-71
2021/03/15 04:53:27;;;;;;;11.38;4.82;;;5.00;99.90;;;;;;10327645;28;20132;-71
2021/03/15 04:58:30;;;;;;;12.02;5.20;;;4.90;99.90;;;;;;10325690;28;20105;-71
2021/03/15 05:03:34;;;;;;;12.10;5.15;;;4.80;99.90;;;;;;10326950;28;20141;-71
2021/03/15 05:08:47;;;;;;;11.68;5.82;;;4.90;99.90;;;;;;10327171;28;20093;-71
2021/03/15 05:13:48;;;;;;;14.82;5.88;;;4.90;99.90;;;;;;10325487;28;20050;-71
2021/03/15 05:18:52;;;;;;;12.77;5.40;;;4.90;99.90;;;;;;10326064;28;20077;-71
2021/03/15 05:23:56;;;;;;;15.05;5.28;;;4.70;99.90;;;;;;10325467;28;20093;-71
2021/03/15 05:29:00;;;;;;;10.77;4.72;;;4.70;99.90;;;;;;10325014;28;20137;-72
2021/03/15 05:34:05;;;;;;;7.50;3.50;;;4.70;99.90;;;;;;10325447;28;20060;-71
2021/03/15 05:39:07;;;;;;;8.45;3.38;;;4.80;99.90;;;;;;10325140;28;20061;-72
2021/03/15 05:44:32;;;;;;;8.40;4.60;;;4.60;99.90;;;;;;10324890;28;20047;-71
2021/03/15 05:50:11;;;;;;;6.95;2.85;;;4.70;99.90;;;;;;10325698;28;20145;-71
2021/03/15 05:55:41;;;;;;;8.68;3.40;;;4.70;99.90;;;;;;10324531;28;20050;-71
2021/03/15 06:01:08;;;;;;;6.35;2.90;;;4.80;99.90;;;;;;10298856;28;20464;-71
2021/03/15 06:06:17;;;;;;;4.15;2.40;;;4.90;99.90;;;;;;10321436;28;20046;-71
2021/03/15 06:11:26;;;;;;;4.25;2.20;;;4.70;99.90;;;;;;10323148;28;20580;-72
2021/03/15 06:16:29;;;;;;;5.40;2.30;;;4.70;99.90;;;;;;10322991;28;20407;-71
2021/03/15 06:21:31;;;;;;;5.57;2.40;;;4.80;99.90;;;;;;10318406;28;20053;-72
2021/03/15 06:26:33;;;;;;;6.28;2.40;;;4.80;99.90;;;;;;10323811;28;20101;-71
2021/03/15 06:31:37;;;;;;;5.57;3.17;;;5.00;99.90;;;;;;10321466;28;20620;-72
2021/03/15 06:36:38;;;;;;;6.00;3.30;;;5.10;99.90;;;;;;10323573;28;20054;-71
2021/03/15 06:41:44;;;;;;;6.53;2.90;;;5.00;99.90;;;;;;10323766;28;20137;-71
2021/03/15 06:46:46;;;;;;;5.10;2.90;;;5.00;99.90;;;;;;10322720;28;20304;-71
2021/03/15 06:52:06;;;;;;;3.10;1.85;;;5.00;99.90;;;;;;10322611;28;20462;-71
2021/03/15 06:57:11;;;;;;;2.05;1.48;;;5.10;99.90;;;;;;10323034;28;20132;-71
2021/03/15 07:02:30;;;;;;;1.98;1.50;;;5.00;99.90;;;;;;10321066;28;20046;-71
2021/03/15 07:07:31;;;;;;;3.38;1.63;;;5.00;99.90;;;;;;10322822;28;20537;-71
2021/03/15 07:12:33;;;;;;;3.90;1.70;;;5.20;99.90;;;;;;10322349;28;20495;-71
2021/03/15 07:17:34;;;;;;;2.78;1.50;;;5.20;99.90;;;;;;10322499;28;20130;-71
2021/03/15 07:22:44;;;;;;;3.75;1.80;;;5.10;99.90;;;;;;10323156;28;20783;-71
2021/03/15 07:27:53;;;;;;;2.95;2.20;;;5.30;99.90;;;;;;10322302;28;20134;-71
2021/03/15 07:33:16;;;;;;;3.80;1.83;;;5.60;99.90;;;;;;10322027;28;20434;-71
2021/03/15 07:38:31;;;;;;;2.88;1.77;;;5.90;99.90;;;;;;10322443;28;20054;-71
2021/03/15 07:43:33;;;;;;;2.58;1.70;;;6.40;99.90;;;;;;10297971;28;20058;-70
2021/03/15 07:48:34;;;;;;;3.28;2.10;;;6.70;99.90;;;;;;10320489;28;20100;-71
2021/03/15 07:53:47;;;;;;;3.00;2.20;;;6.50;99.90;;;;;;10321682;28;20046;-71
2021/03/15 07:58:49;;;;;;;3.03;2.30;;;6.50;99.90;;;;;;10320993;28;20050;-71
2021/03/15 08:03:52;;;;;;;4.25;2.50;;;6.80;99.90;;;;;;10326879;28;20047;-71
2021/03/15 08:08:53;;;;;;;3.22;2.20;;;7.60;99.90;;;;;;10328141;28;20140;-71
2021/03/15 08:13:58;;;;;;;3.13;1.90;;;7.90;99.90;;;;;;10328607;28;20074;-71
2021/03/15 08:19:00;;;;;;;2.58;1.60;;;7.90;99.90;;;;;;10328622;28;20074;-71
2021/03/15 08:24:07;;;;;;;3.13;1.52;;;7.50;99.90;;;;;;10327918;28;20058;-71
2021/03/15 08:29:12;;;;;;;2.30;1.50;;;7.40;99.90;;;;;;10327484;28;20050;-71
2021/03/15 08:34:15;;;;;;;3.13;1.80;;;7.40;99.90;;;;;;10327216;28;20046;-71
2021/03/15 08:39:26;;;;;;;3.03;1.67;;;7.50;99.90;;;;;;10320527;28;20121;-67
2021/03/15 08:44:37;;;;;;;;;;;7.40;99.90;;;;;;10311570;28;20498;-67
2021/03/15 08:49:42;;;;;;;2.22;1.67;;;7.40;99.90;;;;;;10323985;28;19925;-67
2021/03/15 08:54:48;;;;;;;3.65;2.15;;;7.90;99.90;;;;;;10323533;28;20038;-67
2021/03/15 08:59:49;;;;;;;3.28;2.00;;;8.10;99.90;;;;;;10322658;28;20054;-67
2021/03/15 09:04:51;;;;;;;6.00;2.35;;;7.50;99.90;;;;;;10325413;28;20050;-66
2021/03/15 09:09:53;;;;;;;3.67;2.40;;;7.30;99.90;;;;;;10325246;28;20082;-67
2021/03/15 09:14:56;;;;;;;5.00;2.70;;;7.40;99.90;;;;;;10321458;28;20137;-66
2021/03/15 09:20:14;;;;;;;4.68;2.70;;;7.70;99.90;;;;;;10324072;28;20065;-67
2021/03/15 09:25:20;;;;;;;4.78;2.47;;;8.20;99.90;;;;;;10324211;28;20522;-66
2021/03/15 09:30:26;;;;;;;4.68;2.58;;;8.10;99.90;;;;;;10322911;28;20061;-66
2021/03/15 09:35:37;;;;;;;5.13;2.80;;;7.70;99.90;;;;;;10319781;28;20424;-66
2021/03/15 09:40:40;;;;;;;7.85;3.05;;;8.20;99.90;;;;;;10320056;28;20074;-66
2021/03/15 09:46:04;;;;;;;5.32;3.20;;;8.70;99.90;;;;;;10314851;28;20406;-67
2021/03/15 09:51:08;;;;;;;4.80;3.08;;;8.60;99.90;;;;;;10321605;28;20156;-66
2021/03/15 09:56:11;;;;;;;5.45;2.80;;;8.50;99.90;;;;;;10321702;28;20586;-66
2021/03/15 10:01:15;;;;;;;6.65;3.20;;;8.30;99.90;;;;;;10323484;28;20330;-66
2021/03/15 10:06:24;;;;;;;6.80;3.70;;;8.50;99.90;;;;;;10320668;28;20396;-67
2021/03/15 10:11:28;;;;;;;8.65;4.50;;;9.30;99.90;;;;;;10321172;28;20054;-67
2021/03/15 10:16:30;;;;;;;9.23;4.35;;;9.60;99.90;;;;;;10322045;28;20464;-66
2021/03/15 10:21:32;;;;;;;7.30;3.80;;;9.40;99.90;;;;;;10323986;28;20038;-68
2021/03/15 10:26:35;;;;;;;8.85;3.88;;;8.80;99.90;;;;;;10321706;28;20062;-66
2021/03/15 10:31:40;;;;;;;6.82;3.50;;;9.10;99.90;;;;;;10322811;28;20061;-66
2021/03/15 10:36:43;;;;;;;7.13;3.90;;;9.40;99.90;;;;;;10322615;28;20494;-66
2021/03/15 10:41:45;;;;;;;6.80;4.15;;;9.10;99.90;;;;;;10323077;28;20046;-65
2021/03/15 10:46:55;;;;;;;11.02;4.07;;;9.20;99.90;;;;;;10318860;28;20046;-65
2021/03/15 10:51:57;;;;;;;6.68;3.80;;;9.80;99.90;;;;;;10321623;28;20050;-65
2021/03/15 10:57:22;;;;;;;6.63;3.45;;;9.50;99.90;;;;;;10323435;28;20050;-65
2021/03/15 11:02:26;;;;;;;7.00;3.40;;;8.70;99.90;;;;;;10321260;28;20479;-66
2021/03/15 11:07:30;;;;;;;7.07;3.50;;;8.80;99.90;;;;;;10323350;28;20113;-65
2021/03/15 11:12:46;;;;;;;9.85;3.70;;;8.80;99.90;;;;;;10321819;28;20085;-65
2021/03/15 11:18:20;;;;;;;7.75;3.45;;;9.00;99.90;;;;;;10322996;28;20085;-65
2021/03/15 11:23:44;;;;;;;9.48;3.83;;;9.30;99.90;;;;;;10325666;28;20113;-66
2021/03/15 11:28:53;;;;;;;6.60;3.40;;;9.30;99.90;;;;;;10322068;28;20101;-65
2021/03/15 11:33:56;;;;;;;8.43;3.10;;;9.00;99.90;;;;;;10323267;28;20511;-65
2021/03/15 11:39:00;;;;;;;5.47;2.95;;;9.30;99.90;;;;;;10329980;28;20089;-65
2021/03/15 11:44:02;;;;;;;7.32;3.00;;;9.40;99.90;;;;;;10328950;28;20423;-66
2021/03/15 11:49:04;;;;;;;8.13;3.08;;;9.50;99.90;;;;;;10330506;28;20410;-66
2021/03/15 11:54:08;;;;;;;9.75;3.08;;;9.80;99.90;;;;;;10330260;28;20058;-65
2021/03/15 11:59:10;;;;;;;5.38;2.67;;;9.90;99.90;;;;;;10327304;28;20089;-66
2021/03/15 12:04:11;;;;;;;10.98;3.10;;;9.30;99.90;;;;;;10328857;28;20054;-66
2021/03/15 12:09:13;;;;;;;6.95;2.75;;;9.00;99.90;;;;;;10329511;28;20453;-66
2021/03/15 12:14:14;;;;;;;7.00;2.45;;;8.60;99.90;;;;;;10328146;28;20498;-65
2021/03/15 12:19:16;;;;;;;7.97;2.80;;;8.40;99.90;;;;;;10329411;28;20125;-66
2021/03/15 12:24:17;;;;;;;5.85;2.75;;;8.50;99.90;;;;;;10328241;28;20222;-65
2021/03/15 12:29:19;;;;;;;6.88;2.78;;;8.70;99.90;;;;;;10327322;28;20061;-66
2021/03/15 12:34:20;;;;;;;7.43;2.72;;;8.90;99.90;;;;;;10328870;28;20042;-65
2021/03/15 12:39:22;;;;;;;6.30;2.75;;;8.90;99.90;;;;;;10328295;28;20085;-65
2021/03/15 12:44:23;;;;;;;8.80;2.90;;;9.20;99.90;;;;;;10327544;28;20054;-65
2021/03/15 12:49:25;;;;;;;5.95;2.40;;;9.20;99.90;;;;;;10325911;28;20082;-65
2021/03/15 12:54:26;;;;;;;7.88;2.55;;;9.50;99.90;;;;;;10327491;28;20491;-66
2021/03/15 12:59:28;;;;;;;6.57;2.40;;;9.90;99.90;;;;;;10327024;28;20082;-65
2021/03/15 13:04:29;;;;;;;6.43;2.78;;;9.80;99.90;;;;;;10327059;28;20074;-65
2021/03/15 13:09:31;;;;;;;5.65;2.78;;;8.80;99.90;;;;;;10326410;28;20046;-65
2021/03/15 13:14:35;;;;;;;7.10;3.22;;;8.10;99.90;;;;;;10326403;28;20136;-65
2021/03/15 13:19:36;;;;;;;7.65;4.15;;;8.10;99.90;;;;;;10326953;28;20058;-65
2021/03/15 13:24:38;;;;;;;10.20;3.60;;;8.40;99.90;;;;;;10325711;28;20525;-65
2021/03/15 13:29:39;;;;;;;6.68;2.80;;;8.90;99.90;;;;;;10325727;28;20149;-66
2021/03/15 13:34:42;;;;;;;5.55;2.60;;;9.20;99.90;;;;;;10326343;28;20251;-65
2021/03/15 13:39:43;;;;;;;7.10;2.47;;;8.80;99.90;;;;;;10325156;28;20078;-65
2021/03/15 13:44:49;;;;;;;8.40;2.75;;;8.70;99.90;;;;;;10324421;28;20499;-65
2021/03/15 13:49:51;;;;;;;6.72;2.67;;;8.80;99.90;;;;;;10325571;28;20050;-65
2021/03/15 13:54:52;;;;;;;7.88;2.38;;;8.90;99.90;;;;;;10324182;28;20105;-65
2021/03/15 13:59:54;;;;;;;7.53;2.30;;;9.10;99.90;;;;;;10324621;28;20092;-66
2021/03/15 14:04:55;;;;;;;10.27;2.97;;;9.30;99.90;;;;;;10324428;28;20043;-65
2021/03/15 14:09:57;;;;;;;7.80;2.22;;;9.20;99.90;;;;;;10324450;28;20058;-65
2021/03/15 14:14:58;;;;;;;6.43;2.55;;;9.40;99.90;;;;;;10323965;28;20126;-65
2021/03/15 14:20:01;;;;;;;5.88;2.20;;;9.40;99.90;;;;;;10324333;28;20050;-66
2021/03/15 14:25:05;;;;;;;5.38;1.60;;;9.60;99.90;;;;;;10324026;28;20589;-65
2021/03/15 14:30:08;;;;;;;5.07;1.98;;;10.00;99.90;;;;;;10324326;28;20091;-65
2021/03/15 14:35:11;;;;;;;5.25;1.80;;;10.20;99.90;;;;;;10324225;28;20048;-66
2021/03/15 14:40:13;;;;;;;5.75;1.80;;;9.90;98.90;;;;;;10323576;28;20558;-65
2021/03/15 14:45:14;;;;;;;5.97;1.80;;;9.80;99.90;;;;;;10323430;28;20411;-66
2021/03/15 14:50:20;;;;;;;4.93;1.85;;;9.60;99.90;;;;;;10323317;28;20050;-65
2021/03/15 14:55:23;;;;;;;7.22;2.00;;;9.40;99.90;;;;;;10323621;28;20054;-66
2021/03/15 15:00:28;;;;;;;8.15;2.38;;;9.30;99.90;;;;;;10323257;28;20077;-66
2021/03/15 15:05:30;;;;;;;9.38;2.70;;;9.00;99.90;;;;;;10323031;28;20053;-66
2021/03/15 15:10:32;;;;;;;6.35;2.20;;;9.30;99.90;;;;;;10324271;28;20495;-65
2021/03/15 15:15:33;;;;;;;6.85;2.15;;;9.40;99.90;;;;;;10331102;28;20138;-65
2021/03/15 15:20:45;;;;;;;9.90;2.63;;;9.30;99.90;;;;;;10330910;28;20529;-65
2021/03/15 15:25:49;;;;;;;6.38;2.65;;;9.10;99.90;;;;;;10330287;28;20043;-65
2021/03/15 15:30:51;;;;;;;8.07;2.67;;;8.70;99.90;;;;;;10330703;28;20151;-65
2021/03/15 15:35:52;;;;;;;6.72;3.00;;;8.30;99.90;;;;;;10330539;28;20126;-65
2021/03/15 15:40:54;;;;;;;4.88;2.45;;;8.20;99.90;;;;;;10330623;28;20142;-65
2021/03/15 15:45:55;;;;;;;7.00;2.65;;;8.30;99.90;;;;;;10330172;28;20074;-66
2021/03/15 15:51:09;;;;;;;4.60;2.00;;;8.30;99.90;;;;;;10329402;28;20502;-65
2021/03/15 15:56:11;;;;;;;9.05;2.50;;;8.30;99.90;;;;;;10330196;28;20090;-65
2021/03/15 16:01:12;;;;;;;6.00;2.65;;;8.30;99.90;;;;;;10329467;28;20074;-65
2021/03/15 16:06:14;;;;;;;8.02;2.47;;;8.40;99.90;;;;;;10329016;28;20076;-65
2021/03/15 16:11:16;;;;;;;8.35;2.50;;;8.40;99.90;;;;;;10329267;28;20100;-65
2021/03/15 16:16:17;;;;;;;7.93;2.33;;;8.30;99.90;;;;;;10327265;28;20093;-65
2021/03/15 16:21:36;;;;;;;7.82;3.00;;;8.20;99.90;;;;;;10327593;28;20074;-65
2021/03/15 16:26:39;;;;;;;9.02;3.17;;;7.60;99.90;;;;;;10329359;28;20101;-65
2021/03/15 16:31:40;;;;;;;10.02;3.85;;;7.50;99.90;;;;;;10327678;28;20050;-66
2021/03/15 16:36:42;;;;;;;10.80;4.25;;;7.30;99.90;;;;;;10328328;28;20572;-65
2021/03/15 16:41:44;;;;;;;10.70;3.90;;;7.40;99.90;;;;;;10328722;28;20058;-65
2021/03/15 16:46:46;;;;;;;9.05;3.42;;;7.30;99.90;;;;;;10328197;28;20125;-66
2021/03/15 16:52:02;;;;;;;7.85;3.40;;;7.40;99.90;;;;;;10327897;28;20050;-65
2021/03/15 16:57:04;;;;;;;10.73;3.30;;;7.50;99.90;;;;;;10326791;28;20058;-66
2021/03/15 17:02:08;;;;;;;9.48;3.58;;;7.20;99.90;;;;;;10345047;28;20046;-65
2021/03/15 17:07:11;;;;;;;9.02;3.10;;;6.90;99.90;;;;;;10321996;28;20050;-66
2021/03/15 17:12:13;;;;;;;8.38;2.80;;;6.50;99.90;;;;;;10324126;28;20051;-65
2021/03/15 17:17:14;;;;;;;6.00;2.45;;;6.20;99.90;;;;;;10322626;28;20050;-65
2021/03/15 17:22:36;;;;;;;7.32;2.67;;;6.10;99.90;;;;;;10323165;28;20081;-65
2021/03/15 17:27:38;;;;;;;7.55;2.50;;;5.80;99.90;;;;;;10323473;28;20062;-65
2021/03/15 17:32:40;;;;;;;5.85;2.47;;;5.70;99.90;;;;;;10323443;28;20073;-65
2021/03/15 17:37:41;;;;;;;8.65;2.60;;;5.70;99.90;;;;;;10323420;28;20112;-66
2021/03/15 17:42:43;;;;;;;7.15;2.50;;;5.70;99.90;;;;;;10325068;28;20077;-65
2021/03/15 17:47:46;;;;;;;8.95;2.58;;;5.70;99.90;;;;;;10324290;28;20569;-65
2021/03/15 17:52:52;;;;;;;6.82;2.20;;;5.80;99.90;;;;;;10324577;28;20082;-65
2021/03/15 17:57:54;;;;;;;7.47;2.78;;;5.70;99.90;;;;;;10322164;28;20133;-65
2021/03/15 18:02:55;;;;;;;10.52;2.65;;;5.60;99.90;;;;;;10324537;28;20133;-65
2021/03/15 18:07:57;;;;;;;8.55;2.35;;;5.50;99.90;;;;;;10325299;28;20129;-65
2021/03/15 18:12:59;;;;;;;8.43;2.30;;;5.50;99.90;;;;;;10324724;28;20137;-65
2021/03/15 18:18:16;;;;;;;6.45;2.40;;;5.20;99.90;;;;;;10324307;28;20058;-65
2021/03/15 18:23:18;;;;;;;6.65;2.38;;;5.10;99.90;;;;;;10324092;28;20459;-65
2021/03/15 18:28:19;;;;;;;8.65;2.22;;;4.90;99.90;;;;;;10324095;28;20705;-65
2021/03/15 18:33:21;;;;;;;8.20;2.70;;;4.80;99.90;;;;;;10324220;28;20081;-65
2021/03/15 18:38:22;;;;;;;8.45;2.80;;;4.80;99.90;;;;;;10324036;28;20169;-65
2021/03/15 18:43:25;;;;;;;8.65;3.10;;;4.70;99.90;;;;;;10323013;28;20515;-65
2021/03/15 18:48:27;;;;;;;9.25;3.67;;;4.70;99.90;;;;;;10323369;28;20085;-65
2021/03/15 18:53:37;;;;;;;7.82;3.17;;;4.70;99.90;;;;;;10323749;28;20054;-65
2021/03/15 18:58:39;;;;;;;12.77;4.10;;;4.70;99.90;;;;;;10323067;28;20074;-65
2021/03/15 19:03:40;;;;;;;12.63;4.45;;;4.70;99.90;;;;;;10323983;28;20133;-66
2021/03/15 19:08:43;;;;;;;12.57;3.90;;;4.80;99.90;;;;;;10323040;28;20446;-65
2021/03/15 19:13:44;;;;;;;12.38;3.95;;;4.80;99.90;;;;;;10322861;28;20058;-65
2021/03/15 19:18:46;;;;;;;12.20;4.22;;;4.80;99.90;;;;;;10323778;28;20054;-65
2021/03/15 19:23:58;;;;;;;14.80;4.93;;;4.80;99.90;;;;;;10323388;28;20113;-65
2021/03/15 19:29:00;;;;;;;11.13;3.95;;;4.80;99.90;;;;;;10322680;28;20066;-65
2021/03/15 19:34:01;;;;;;;11.77;4.30;;;4.90;99.90;;;;;;10323314;28;20046;-65
2021/03/15 19:39:04;;;;;;;13.15;4.85;;;5.00;99.90;;;;;;10323294;28;20073;-65
2021/03/15 19:44:05;;;;;;;12.80;4.95;;;4.90;99.90;;;;;;10321931;28;20105;-65
2021/03/15 19:49:08;;;;;;;17.50;4.85;;;4.90;99.90;;;;;;10322719;28;20054;-65
2021/03/15 19:54:21;;;;;;;13.13;4.95;;;4.90;99.90;;;;;;10322861;28;20108;-65
2021/03/15 19:59:23;;;;;;;12.52;4.40;;;4.90;99.90;;;;;;10327959;28;20050;-65
2021/03/15 20:04:24;;;;;;;15.23;5.18;;;4.90;99.90;;;;;;10329759;28;20510;-65
2021/03/15 20:09:28;;;;;;;17.23;4.72;;;5.00;99.90;;;;;;10328765;28;20058;-65
2021/03/15 20:14:30;;;;;;;13.68;5.35;;;4.90;99.90;;;;;;10328332;28;20460;-65
2021/03/15 20:19:31;;;;;;;13.75;4.47;;;4.90;99.90;;;;;;10329527;28;20080;-65
2021/03/15 20:24:48;;;;;;;13.75;4.18;;;5.00;99.90;;;;;;10328522;28;20062;-65
2021/03/15 20:29:50;;;;;;;13.70;4.07;;;5.10;99.90;;;;;;10328688;28;20133;-65
2021/03/15 20:34:52;;;;;;;17.20;4.70;;;5.20;99.90;;;;;;10329015;28;20050;-65
2021/03/15 20:39:53;;;;;;;17.33;4.63;;;5.10;99.90;;;;;;10328335;28;20133;-65
2021/03/15 20:44:55;;;;;;;13.05;4.30;;;5.10;99.90;;;;;;10328001;28;20066;-65
2021/03/15 20:49:56;;;;;;;15.90;5.22;;;5.20;99.90;;;;;;10328106;28;20092;-65
2021/03/15 20:55:09;;;;;;;15.05;4.85;;;5.20;99.90;;;;;;10327450;28;20058;-65
2021/03/15 21:00:16;;;;;;;15.77;5.57;;;5.20;99.90;;;;;;10326077;28;20101;-65
2021/03/15 21:05:20;;;;;;;15.05;5.65;;;5.10;99.90;;;;;;10327284;28;20046;-65
2021/03/15 21:10:23;;;;;;;17.00;5.15;;;5.00;99.90;;;;;;10325873;28;20510;-65
2021/03/15 21:15:25;;;;;;;19.35;5.22;;;4.90;99.90;;;;;;10332717;28;20049;-65
2021/03/15 21:20:29;;;;;;;19.55;5.70;;;4.90;99.90;;;;;;10366138;28;20042;-65
2021/03/15 21:25:31;;;;;;;15.55;5.32;;;4.80;99.90;;;;;;10365731;28;20054;-66
2021/03/15 21:30:37;;;;;;;16.58;5.80;;;4.80;99.90;;;;;;10362048;28;20133;-65
2021/03/15 21:35:43;;;;;;;14.27;5.13;;;4.70;99.90;;;;;;10361962;28;20103;-65
2021/03/15 21:40:46;;;;;;;16.85;5.13;;;4.70;99.90;;;;;;10366257;28;20061;-65
2021/03/15 21:45:47;;;;;;;15.57;5.15;;;4.70;99.90;;;;;;10365744;28;20057;-65
2021/03/15 21:50:50;;;;;;;17.23;4.68;;;4.60;99.90;;;;;;10365143;28;20050;-65
2021/03/15 21:55:54;;;;;;;16.02;4.65;;;4.60;99.90;;;;;;10365897;28;20042;-65
2021/03/15 22:00:56;;;;;;;18.10;5.28;;;4.60;99.90;;;;;;10365717;28;20045;-65
2021/03/15 22:05:58;;;;;;;17.60;4.75;;;4.50;99.90;;;;;;10365476;28;20100;-65
2021/03/15 22:11:01;;;;;;;15.68;5.25;;;4.50;99.90;;;;;;10364297;28;20061;-65
2021/03/15 22:16:02;;;;;;;18.98;5.10;;;4.50;99.90;;;;;;10325283;28;20380;-65
2021/03/15 22:21:04;;;;;;;15.43;5.18;;;4.50;99.90;;;;;;10300642;28;20541;-77
2021/03/15 22:26:19;;;;;;;16.08;5.15;;;4.60;99.90;;;;;;10319625;28;20571;-76
2021/03/15 22:31:20;;;;;;;15.48;5.38;;;4.60;99.90;;;;;;10320682;28;20077;-77
2021/03/15 22:36:22;;;;;;;18.23;5.63;;;4.50;99.90;;;;;;10321833;28;20038;-77
2021/03/15 22:41:24;;;;;;;16.65;5.40;;;4.40;99.90;;;;;;10322788;28;20113;-77
2021/03/15 22:46:25;;;;;;;14.18;5.88;;;4.40;99.90;;;;;;10284252;28;20104;-77
2021/03/15 22:51:27;;;;;;;13.55;4.80;;;4.40;99.90;;;;;;10320414;28;20641;-76
2021/03/15 22:56:39;;;;;;;11.23;4.25;;;4.40;99.90;;;;;;10306390;28;20555;-75
2021/03/15 23:01:44;;;;;;;13.85;4.78;;;4.50;99.90;;;;;;10320770;28;20058;-76
2021/03/15 23:06:46;;;;;;;13.88;4.75;;;4.60;99.90;;;;;;10292273;28;20106;-76
2021/03/15 23:11:51;;;;;;;11.57;3.90;;;4.70;99.90;;;;;;10298139;28;20197;-76
2021/03/15 23:16:53;;;;;;;11.35;3.40;;;4.50;99.90;;;;;;10301241;28;20490;-75
2021/03/15 23:21:56;;;;;;;11.15;3.53;;;4.40;99.90;;;;;;10320315;28;20054;-75
2021/03/15 23:27:05;;;;;;;10.20;4.20;;;4.30;99.90;;;;;;10320897;28;20499;-75
2021/03/15 23:32:08;;;;;;;11.73;4.20;;;4.30;99.90;;;;;;10312252;28;20046;-74
2021/03/15 23:37:10;;;;;;;11.52;5.00;;;4.50;99.90;;;;;;10326396;28;20046;-75
2021/03/15 23:42:13;;;;;;;12.85;5.38;;;4.50;99.90;;;;;;10297660;28;20054;-74
2021/03/15 23:47:17;;;;;;;13.13;5.82;;;4.70;99.90;;;;;;10290732;28;20082;-75
2021/03/15 23:52:19;;;;;;;21.48;6.80;;;4.80;99.90;;;;;;10316416;28;20050;-75
2021/03/15 23:57:25;;;;;;;16.23;7.85;;;4.70;99.90;;;;;;10298809;28;20042;-75
